TAF KOTH
KOTH 280533Z 2806/2906 20007KT 5SM BR OVC004 FM280900 18005KT 2SM BR OVC003 FM281700 15006KT P6SM BKN015 FM282100 24007KT P6SM BKN050=
METAR KOTH
WC KOTH
WS KOTH
WV KOTH